Time;durP1;ratioP1;P1;durP2;ratioP2;P2;SDS_P1;SDS_P2;PMS_P1;PMS_P2;Temp;Humidity;BMP_temperature;BMP_pressure;BME280_temperature;BME280_humidity;BME280_pressure;Samples;Min_cycle;Max_cycle;Signal;HPM_P1;HPM_P2
2023/07/30 00:02:07;;;;;;;5.05;1.05;;;;;;;;;;5058801;28;20514;-76
2023/07/30 00:04:38;;;;;;;4.20;1.23;;;;;;;;;;5057300;28;20538;-74
2023/07/30 00:07:11;;;;;;;4.97;1.40;;;;;;;;;;5058741;28;20510;-75
2023/07/30 00:09:41;;;;;;;7.45;1.40;;;;;;;;;;5059039;28;20056;-74
2023/07/30 00:12:11;;;;;;;;;;;;;;;;;;5057586;28;20060;-75
2023/07/30 00:14:41;;;;;;;4.22;0.82;;;;;;;;;;5058871;28;19928;-75
2023/07/30 00:17:11;;;;;;;3.03;0.90;;;;;;;;;;5058429;28;20115;-74
2023/07/30 00:19:43;;;;;;;5.97;1.42;;;;;;;;;;5058675;28;20078;-74
2023/07/30 00:22:13;;;;;;;2.88;1.50;;;;;;;;;;5057453;28;20052;-75
2023/07/30 00:24:44;;;;;;;4.30;1.88;;;;;;;;;;5058870;28;20858;-74
2023/07/30 00:27:15;;;;;;;5.38;1.92;;;;;;;;;;5058307;28;20686;-75
2023/07/30 00:29:49;;;;;;;13.75;2.80;;;;;;;;;;5056618;28;20052;-74
2023/07/30 00:32:19;;;;;;;;;;;;;;;;;;5058030;28;20060;-74
2023/07/30 00:34:51;;;;;;;2.85;1.40;;;;;;;;;;5059047;28;19936;-74
2023/07/30 00:37:22;;;;;;;4.80;1.20;;;;;;;;;;5057320;28;20056;-74
2023/07/30 00:39:53;;;;;;;5.85;1.20;;;;;;;;;;5059261;28;20059;-75
2023/07/30 00:42:23;;;;;;;1.35;0.88;;;;;;;;;;5058425;28;20053;-75
2023/07/30 00:44:54;;;;;;;2.47;1.20;;;;;;;;;;5056770;28;20057;-74
2023/07/30 00:47:27;;;;;;;5.90;1.23;;;;;;;;;;5057103;28;20052;-75
2023/07/30 00:49:58;;;;;;;3.88;1.40;;;;;;;;;;5058743;28;20040;-74
2023/07/30 00:52:30;;;;;;;6.03;1.63;;;;;;;;;;5053671;28;20411;-75
2023/07/30 00:55:02;;;;;;;6.18;1.35;;;;;;;;;;5035880;28;20064;-74
2023/07/30 00:57:35;;;;;;;5.82;1.00;;;;;;;;;;5038223;28;20512;-75
2023/07/30 01:00:09;;;;;;;4.03;1.40;;;;;;;;;;5038964;28;20045;-75
2023/07/30 01:02:39;;;;;;;3.33;0.98;;;;;;;;;;5039029;28;21092;-74
2023/07/30 01:05:08;;;;;;;;;;;;;;;;;;5039075;28;20053;-75
2023/07/30 01:07:39;;;;;;;4.30;1.17;;;;;;;;;;5037626;28;19971;-74
2023/07/30 01:10:09;;;;;;;;;;;;;;;;;;5037995;28;20049;-74
2023/07/30 01:12:42;;;;;;;4.75;1.20;;;;;;;;;;5037102;28;19925;-74
2023/07/30 01:15:13;;;;;;;3.45;1.25;;;;;;;;;;5037592;28;20064;-77
2023/07/30 01:17:44;;;;;;;8.63;1.40;;;;;;;;;;5038057;28;20500;-75
2023/07/30 01:20:14;;;;;;;6.88;1.50;;;;;;;;;;5037994;28;20063;-77
2023/07/30 01:22:47;;;;;;;5.57;1.40;;;;;;;;;;5039337;28;20049;-72
2023/07/30 01:25:19;;;;;;;5.82;1.52;;;;;;;;;;5042509;28;20049;-72
2023/07/30 01:28:00;;;;;;;3.58;1.40;;;;;;;;;;5040239;28;20060;-74
2023/07/30 01:30:39;;;;;;;5.15;1.25;;;;;;;;;;5042246;28;20053;-73
2023/07/30 01:33:11;;;;;;;5.93;1.77;;;;;;;;;;5039232;28;20701;-73
2023/07/30 01:35:44;;;;;;;7.47;1.30;;;;;;;;;;5041364;28;20824;-75
2023/07/30 01:38:16;;;;;;;8.63;1.35;;;;;;;;;;5039430;28;20602;-75
2023/07/30 01:40:47;;;;;;;8.38;1.30;;;;;;;;;;5041103;28;20045;-75
2023/07/30 01:43:18;;;;;;;4.18;1.30;;;;;;;;;;5042018;28;20389;-73
2023/07/30 01:45:48;;;;;;;6.03;0.90;;;;;;;;;;5041804;28;20049;-73
2023/07/30 01:48:19;;;;;;;3.30;0.90;;;;;;;;;;5022618;28;20048;-74
2023/07/30 01:50:50;;;;;;;6.22;1.20;;;;;;;;;;5040407;28;20053;-73
2023/07/30 01:53:21;;;;;;;7.38;1.50;;;;;;;;;;5041301;28;20056;-74
2023/07/30 01:55:51;;;;;;;9.18;1.65;;;;;;;;;;5039471;28;20056;-74
2023/07/30 01:58:21;;;;;;;;;;;;;;;;;;5039920;28;20493;-75
2023/07/30 02:00:51;;;;;;;3.15;1.00;;;;;;;;;;5040311;28;19931;-76
2023/07/30 02:03:22;;;;;;;2.83;0.85;;;;;;;;;;5041624;28;20970;-74
2023/07/30 02:05:54;;;;;;;4.13;1.15;;;;;;;;;;5041384;28;20108;-74
2023/07/30 02:08:24;;;;;;;2.05;0.80;;;;;;;;;;5039948;28;20060;-74
2023/07/30 02:10:58;;;;;;;4.93;1.10;;;;;;;;;;5041048;28;20044;-75
2023/07/30 02:13:30;;;;;;;2.78;1.00;;;;;;;;;;5039295;28;20649;-74
2023/07/30 02:16:01;;;;;;;2.47;1.25;;;;;;;;;;5038747;28;20495;-74
2023/07/30 02:18:32;;;;;;;2.17;1.17;;;;;;;;;;5039894;28;20407;-78
2023/07/30 02:21:01;;;;;;;;;;;;;;;;;;5039571;28;20515;-74
2023/07/30 02:23:31;;;;;;;5.30;1.20;;;;;;;;;;5041115;28;19967;-75
2023/07/30 02:26:02;;;;;;;5.25;1.25;;;;;;;;;;5040931;28;20049;-76
2023/07/30 02:28:33;;;;;;;3.25;0.90;;;;;;;;;;5040532;28;20044;-76
2023/07/30 02:31:03;;;;;;;3.65;0.85;;;;;;;;;;5041475;28;20055;-75
2023/07/30 02:33:34;;;;;;;3.50;1.02;;;;;;;;;;5040546;28;20053;-74
2023/07/30 02:36:04;;;;;;;;;;;;;;;;;;5038936;28;20806;-73
2023/07/30 02:38:35;;;;;;;2.70;0.98;;;;;;;;;;5038855;28;19931;-74
2023/07/30 02:41:05;;;;;;;2.70;0.63;;;;;;;;;;5040732;28;20041;-76
2023/07/30 02:43:36;;;;;;;2.72;1.13;;;;;;;;;;5039025;28;20053;-73
2023/07/30 02:46:07;;;;;;;4.78;0.90;;;;;;;;;;5040314;28;20045;-75
2023/07/30 02:48:37;;;;;;;1.85;0.70;;;;;;;;;;5040395;28;20049;-73
2023/07/30 02:51:08;;;;;;;2.97;0.80;;;;;;;;;;5040277;28;20051;-75
2023/07/30 02:53:38;;;;;;;2.47;0.88;;;;;;;;;;5039417;28;20083;-74
2023/07/30 02:56:09;;;;;;;3.70;0.82;;;;;;;;;;5039841;28;20049;-75
2023/07/30 02:58:40;;;;;;;4.53;1.17;;;;;;;;;;5040179;28;20048;-75
2023/07/30 03:01:10;;;;;;;3.83;0.93;;;;;;;;;;5038108;28;20045;-73
2023/07/30 03:03:41;;;;;;;1.42;0.80;;;;;;;;;;5022960;28;20500;-73
2023/07/30 03:06:11;;;;;;;2.28;1.02;;;;;;;;;;5037799;28;20075;-73
2023/07/30 03:08:44;;;;;;;2.38;0.70;;;;;;;;;;5040664;28;20052;-75
2023/07/30 03:11:14;;;;;;;3.25;0.98;;;;;;;;;;5038526;28;20423;-75
2023/07/30 03:13:44;;;;;;;1.17;0.70;;;;;;;;;;5040117;28;20546;-73
2023/07/30 03:16:14;;;;;;;1.67;0.88;;;;;;;;;;5038911;28;20065;-75
2023/07/30 03:18:45;;;;;;;2.80;0.95;;;;;;;;;;5037436;28;20049;-75
2023/07/30 03:21:16;;;;;;;1.73;0.75;;;;;;;;;;5039632;28;20534;-75
2023/07/30 03:23:48;;;;;;;1.70;1.10;;;;;;;;;;5038009;28;20508;-75
2023/07/30 03:26:18;;;;;;;3.65;1.10;;;;;;;;;;5039908;28;20072;-73
2023/07/30 03:28:48;;;;;;;;;;;;;;;;;;5040007;28;20044;-76
2023/07/30 03:31:20;;;;;;;2.17;0.90;;;;;;;;;;5039419;28;19924;-74
2023/07/30 03:33:50;;;;;;;1.67;0.95;;;;;;;;;;5039884;28;20056;-74
2023/07/30 03:36:22;;;;;;;5.72;0.93;;;;;;;;;;5039842;28;20045;-76
2023/07/30 03:38:53;;;;;;;2.85;0.90;;;;;;;;;;5037879;28;20583;-73
2023/07/30 03:41:24;;;;;;;2.92;0.80;;;;;;;;;;5036837;28;20053;-75
2023/07/30 03:43:55;;;;;;;7.18;1.27;;;;;;;;;;5039470;28;20491;-73
2023/07/30 03:46:26;;;;;;;3.40;1.13;;;;;;;;;;5037780;28;20096;-75
2023/07/30 03:48:59;;;;;;;1.67;0.80;;;;;;;;;;5039167;28;20056;-75
2023/07/30 03:51:29;;;;;;;4.50;1.00;;;;;;;;;;5039331;28;20052;-74
2023/07/30 03:53:59;;;;;;;3.90;1.20;;;;;;;;;;5039201;28;20538;-75
2023/07/30 03:56:31;;;;;;;4.28;0.90;;;;;;;;;;5038930;28;20052;-75
2023/07/30 03:59:01;;;;;;;3.65;0.90;;;;;;;;;;5038880;28;20060;-75
2023/07/30 04:01:34;;;;;;;3.42;1.30;;;;;;;;;;5037229;28;20053;-72
2023/07/30 04:04:04;;;;;;;5.65;0.88;;;;;;;;;;5042186;28;20060;-74
2023/07/30 04:06:34;;;;;;;5.65;1.05;;;;;;;;;;5036131;28;20139;-74
2023/07/30 04:09:05;;;;;;;6.15;1.13;;;;;;;;;;5037162;28;20049;-74
2023/07/30 04:11:37;;;;;;;3.83;2.05;;;;;;;;;;5039201;28;20400;-75
2023/07/30 04:14:08;;;;;;;2.45;1.40;;;;;;;;;;5039389;28;20052;-74
2023/07/30 04:16:40;;;;;;;2.95;1.50;;;;;;;;;;5039244;28;20053;-75
2023/07/30 04:19:11;;;;;;;3.13;1.30;;;;;;;;;;5039308;28;20048;-74
2023/07/30 04:21:41;;;;;;;2.78;1.38;;;;;;;;;;5037871;28;20530;-74
2023/07/30 04:24:12;;;;;;;2.90;0.98;;;;;;;;;;5037677;28;20420;-75
2023/07/30 04:26:41;;;;;;;;;;;;;;;;;;5037941;28;21141;-75
2023/07/30 04:29:13;;;;;;;2.55;0.85;;;;;;;;;;5039210;28;20327;-74
2023/07/30 04:31:44;;;;;;;4.88;0.90;;;;;;;;;;5037602;28;20053;-75
2023/07/30 04:34:16;;;;;;;2.35;0.65;;;;;;;;;;5038954;28;20526;-73
2023/07/30 04:36:46;;;;;;;1.63;1.00;;;;;;;;;;5036877;28;20124;-75
2023/07/30 04:39:17;;;;;;;2.92;1.33;;;;;;;;;;5037292;28;20507;-74
2023/07/30 04:41:49;;;;;;;2.20;0.90;;;;;;;;;;5036662;28;20049;-74
2023/07/30 04:44:20;;;;;;;4.85;1.67;;;;;;;;;;5037323;28;20045;-76
2023/07/30 04:46:50;;;;;;;7.40;2.83;;;;;;;;;;5039187;28;20049;-74
2023/07/30 04:49:20;;;;;;;5.82;2.00;;;;;;;;;;5036313;28;20061;-76
2023/07/30 04:51:50;;;;;;;7.78;3.15;;;;;;;;;;5036681;28;20440;-75
2023/07/30 04:54:20;;;;;;;;;;;;;;;;;;5039406;28;20078;-75
2023/07/30 04:56:51;;;;;;;21.05;12.02;;;;;;;;;;5037169;28;20414;-74
2023/07/30 04:59:21;;;;;;;18.98;8.65;;;;;;;;;;5040395;28;20053;-75
2023/07/30 05:01:52;;;;;;;11.70;5.53;;;;;;;;;;5043045;28;20049;-75
2023/07/30 05:04:22;;;;;;;9.30;3.50;;;;;;;;;;5041639;28;20052;-74
2023/07/30 05:06:53;;;;;;;5.22;3.40;;;;;;;;;;5042386;28;20154;-76
2023/07/30 05:09:23;;;;;;;8.27;3.40;;;;;;;;;;5042338;28;20053;-74
2023/07/30 05:11:53;;;;;;;4.70;2.47;;;;;;;;;;5042492;28;20049;-76
2023/07/30 05:14:24;;;;;;;;;;;;;;;;;;5042966;28;20048;-74
2023/07/30 05:16:55;;;;;;;4.85;1.65;;;;;;;;;;5042355;28;20701;-76
2023/07/30 05:19:25;;;;;;;4.82;1.73;;;;;;;;;;5041196;28;20041;-74
2023/07/30 05:21:55;;;;;;;4.13;1.73;;;;;;;;;;5041975;28;20546;-74
2023/07/30 05:24:26;;;;;;;5.43;1.48;;;;;;;;;;5042291;28;20055;-76
2023/07/30 05:26:56;;;;;;;3.83;1.50;;;;;;;;;;5041622;28;20544;-76
2023/07/30 05:29:26;;;;;;;5.68;1.63;;;;;;;;;;5041213;28;20045;-75
2023/07/30 05:31:58;;;;;;;8.57;1.40;;;;;;;;;;5041488;28;20057;-75
2023/07/30 05:34:29;;;;;;;3.40;1.52;;;;;;;;;;5040462;28;20055;-75
2023/07/30 05:36:59;;;;;;;5.63;1.42;;;;;;;;;;5039811;28;20499;-75
2023/07/30 05:39:29;;;;;;;4.13;1.42;;;;;;;;;;5041784;28;20071;-75
2023/07/30 05:42:00;;;;;;;2.67;0.95;;;;;;;;;;5041344;28;20037;-74
2023/07/30 05:44:30;;;;;;;3.40;1.20;;;;;;;;;;5040835;28;20052;-74
2023/07/30 05:47:00;;;;;;;5.15;1.33;;;;;;;;;;5041999;28;20053;-75
2023/07/30 05:49:32;;;;;;;3.03;1.38;;;;;;;;;;5039326;28;20508;-76
2023/07/30 05:52:04;;;;;;;3.78;1.15;;;;;;;;;;5040189;28;20431;-74
2023/07/30 05:54:34;;;;;;;3.83;1.30;;;;;;;;;;5041324;28;20048;-74
2023/07/30 05:57:04;;;;;;;2.20;1.10;;;;;;;;;;5040744;28;20518;-73
2023/07/30 05:59:35;;;;;;;8.05;1.42;;;;;;;;;;5041196;28;20053;-74
2023/07/30 06:02:06;;;;;;;7.85;1.27;;;;;;;;;;5041256;28;20064;-75
2023/07/30 06:04:38;;;;;;;4.68;1.05;;;;;;;;;;5041282;28;21061;-73
2023/07/30 06:07:10;;;;;;;3.67;1.30;;;;;;;;;;5040356;28;20049;-75
2023/07/30 06:09:40;;;;;;;2.20;1.25;;;;;;;;;;5040997;28;20510;-74
2023/07/30 06:12:11;;;;;;;4.47;1.25;;;;;;;;;;5040909;28;20049;-75
2023/07/30 06:14:42;;;;;;;4.57;1.30;;;;;;;;;;5039369;28;20749;-73
2023/07/30 06:17:12;;;;;;;3.20;1.17;;;;;;;;;;5041001;28;20496;-73
2023/07/30 06:19:43;;;;;;;0.95;0.80;;;;;;;;;;5040621;28;20061;-74
2023/07/30 06:22:18;;;;;;;4.40;1.20;;;;;;;;;;5040987;28;20416;-74
2023/07/30 06:24:49;;;;;;;6.97;1.45;;;;;;;;;;5041306;28;20052;-73
2023/07/30 06:27:20;;;;;;;1.13;1.02;;;;;;;;;;5040541;28;20049;-75
2023/07/30 06:29:50;;;;;;;3.58;1.48;;;;;;;;;;5040267;28;20059;-76
2023/07/30 06:32:20;;;;;;;3.30;1.48;;;;;;;;;;5039834;28;20060;-76
2023/07/30 06:34:51;;;;;;;3.17;1.42;;;;;;;;;;5040547;28;20185;-76
2023/07/30 06:37:21;;;;;;;3.53;1.50;;;;;;;;;;5041145;28;20506;-75
2023/07/30 06:39:51;;;;;;;2.47;1.20;;;;;;;;;;5039847;28;20598;-73
2023/07/30 06:42:23;;;;;;;2.13;1.00;;;;;;;;;;5040229;28;20045;-76
2023/07/30 06:44:53;;;;;;;1.42;1.10;;;;;;;;;;5039759;28;20500;-75
2023/07/30 06:47:25;;;;;;;2.92;1.38;;;;;;;;;;5040974;28;20076;-73
2023/07/30 06:49:55;;;;;;;7.68;2.20;;;;;;;;;;5038248;28;20060;-76
2023/07/30 06:52:25;;;;;;;8.57;1.83;;;;;;;;;;5041016;28;20641;-76
2023/07/30 06:54:56;;;;;;;4.38;1.88;;;;;;;;;;5040659;28;20051;-75
2023/07/30 06:57:27;;;;;;;6.75;1.30;;;;;;;;;;5039693;28;20523;-74
2023/07/30 07:00:00;;;;;;;3.28;1.58;;;;;;;;;;5040643;28;20508;-76
2023/07/30 07:02:30;;;;;;;3.92;1.73;;;;;;;;;;5040573;28;20049;-75
2023/07/30 07:05:00;;;;;;;3.00;1.60;;;;;;;;;;5040281;28;20037;-75
2023/07/30 07:07:30;;;;;;;;;;;;;;;;;;5041107;28;20048;-74
2023/07/30 07:10:01;;;;;;;4.43;1.67;;;;;;;;;;5040251;28;19924;-75
2023/07/30 07:12:32;;;;;;;2.47;1.50;;;;;;;;;;5039972;28;20816;-75
2023/07/30 07:15:02;;;;;;;4.30;1.40;;;;;;;;;;5039846;28;20045;-74
2023/07/30 07:17:33;;;;;;;2.22;1.25;;;;;;;;;;5042210;28;20075;-74
2023/07/30 07:20:06;;;;;;;2.58;1.30;;;;;;;;;;5041621;28;20049;-74
2023/07/30 07:22:38;;;;;;;2.17;1.30;;;;;;;;;;5042718;28;20056;-75
2023/07/30 07:25:09;;;;;;;4.13;1.20;;;;;;;;;;5041833;28;20053;-75
2023/07/30 07:27:39;;;;;;;1.60;1.23;;;;;;;;;;5042507;28;20048;-75
2023/07/30 07:30:11;;;;;;;1.67;1.13;;;;;;;;;;5041695;28;20789;-75
2023/07/30 07:32:41;;;;;;;2.40;1.33;;;;;;;;;;5042463;28;20048;-74
2023/07/30 07:35:12;;;;;;;3.63;1.50;;;;;;;;;;5042719;28;20048;-74
2023/07/30 07:37:42;;;;;;;2.92;1.83;;;;;;;;;;5042356;28;20473;-75
2023/07/30 07:40:12;;;;;;;;;;;;;;;;;;5040873;28;20052;-71
2023/07/30 07:42:43;;;;;;;3.40;1.25;;;;;;;;;;5042182;28;20409;-74
2023/07/30 07:45:13;;;;;;;4.80;1.67;;;;;;;;;;5042575;28;20455;-73
2023/07/30 07:47:43;;;;;;;3.20;1.95;;;;;;;;;;5042705;28;20403;-74
2023/07/30 07:50:15;;;;;;;3.13;1.95;;;;;;;;;;5041872;28;20045;-74
2023/07/30 07:52:53;;;;;;;3.50;1.70;;;;;;;;;;5042025;28;20045;-74
2023/07/30 07:55:24;;;;;;;5.47;1.65;;;;;;;;;;5041985;28;20053;-73
2023/07/30 07:57:55;;;;;;;3.47;1.92;;;;;;;;;;5042035;28;20053;-72
2023/07/30 08:00:25;;;;;;;2.35;1.40;;;;;;;;;;5042234;28;21087;-73
2023/07/30 08:02:55;;;;;;;3.30;1.70;;;;;;;;;;5042295;28;20043;-73
2023/07/30 08:05:25;;;;;;;;;;;;;;;;;;5039664;28;20052;-74
2023/07/30 08:07:56;;;;;;;1.88;1.15;;;;;;;;;;5041933;28;19931;-74
2023/07/30 08:10:26;;;;;;;4.30;1.75;;;;;;;;;;5041771;28;20045;-72
2023/07/30 08:12:56;;;;;;;2.47;1.35;;;;;;;;;;5041825;28;20976;-74
2023/07/30 08:15:26;;;;;;;3.97;1.80;;;;;;;;;;5041612;28;20048;-74
2023/07/30 08:17:58;;;;;;;2.45;1.67;;;;;;;;;;5041792;28;20041;-74
2023/07/30 08:20:28;;;;;;;4.32;2.00;;;;;;;;;;5041331;28;20867;-74
2023/07/30 08:22:58;;;;;;;4.13;1.65;;;;;;;;;;5041378;28;20507;-74
2023/07/30 08:25:28;;;;;;;5.53;1.80;;;;;;;;;;5041415;28;20067;-75
2023/07/30 08:27:58;;;;;;;;;;;;;;;;;;5041969;28;20049;-74
2023/07/30 08:30:28;;;;;;;2.83;1.63;;;;;;;;;;5042279;28;19928;-75
2023/07/30 08:32:59;;;;;;;2.40;1.20;;;;;;;;;;5042923;28;20524;-75
2023/07/30 08:35:29;;;;;;;4.53;1.58;;;;;;;;;;5045360;28;20055;-74
2023/07/30 08:37:59;;;;;;;2.75;1.40;;;;;;;;;;5045106;28;20492;-74
2023/07/30 08:40:30;;;;;;;3.03;1.60;;;;;;;;;;5045198;28;20504;-75
2023/07/30 08:43:04;;;;;;;4.65;1.70;;;;;;;;;;5045609;28;20510;-75
2023/07/30 08:45:35;;;;;;;4.70;1.58;;;;;;;;;;5045627;28;20052;-73
2023/07/30 08:48:06;;;;;;;2.30;1.45;;;;;;;;;;5045959;28;20057;-74
2023/07/30 08:50:38;;;;;;;3.17;1.33;;;;;;;;;;5045210;28;20060;-75
2023/07/30 08:53:09;;;;;;;3.17;1.48;;;;;;;;;;5044800;28;20063;-73
2023/07/30 08:55:41;;;;;;;5.00;1.58;;;;;;;;;;5043103;28;20083;-75
2023/07/30 08:58:12;;;;;;;3.15;1.33;;;;;;;;;;5044764;28;20071;-75
2023/07/30 09:00:44;;;;;;;5.03;1.65;;;;;;;;;;5044379;28;20048;-74
2023/07/30 09:03:18;;;;;;;4.10;1.40;;;;;;;;;;5045181;28;20041;-75
2023/07/30 09:05:50;;;;;;;3.97;1.48;;;;;;;;;;5045507;28;20428;-72
2023/07/30 09:08:20;;;;;;;3.15;1.33;;;;;;;;;;5044823;28;20503;-75
2023/07/30 09:10:50;;;;;;;3.15;1.40;;;;;;;;;;5044577;28;20495;-74
2023/07/30 09:13:24;;;;;;;6.18;1.58;;;;;;;;;;5044414;28;20053;-74
2023/07/30 09:15:54;;;;;;;3.97;1.48;;;;;;;;;;5044901;28;20044;-76
2023/07/30 09:18:25;;;;;;;2.25;1.20;;;;;;;;;;5044564;28;20060;-75
2023/07/30 09:20:55;;;;;;;4.30;1.60;;;;;;;;;;5044913;28;20053;-75
2023/07/30 09:23:26;;;;;;;3.78;2.08;;;;;;;;;;5044902;28;20508;-75
2023/07/30 09:25:58;;;;;;;4.72;1.73;;;;;;;;;;5043389;28;20087;-75
2023/07/30 09:28:31;;;;;;;4.18;1.52;;;;;;;;;;5044516;28;20643;-75
2023/07/30 09:31:07;;;;;;;2.20;1.50;;;;;;;;;;5044507;28;20045;-73
2023/07/30 09:33:51;;;;;;;4.05;1.70;;;;;;;;;;5044479;28;20400;-76
2023/07/30 09:36:22;;;;;;;3.88;1.63;;;;;;;;;;5044566;28;20328;-73
2023/07/30 09:38:52;;;;;;;7.22;2.03;;;;;;;;;;5042958;28;20468;-75
2023/07/30 09:41:23;;;;;;;4.25;1.83;;;;;;;;;;5044345;28;20052;-73
2023/07/30 09:43:59;;;;;;;2.80;1.83;;;;;;;;;;5044311;28;20056;-75
2023/07/30 09:46:30;;;;;;;2.22;1.50;;;;;;;;;;5044218;28;20064;-75
2023/07/30 09:49:04;;;;;;;3.10;1.55;;;;;;;;;;5043980;28;20041;-74
2023/07/30 09:51:37;;;;;;;3.60;1.45;;;;;;;;;;5042328;28;20053;-72
2023/07/30 09:54:11;;;;;;;3.17;1.88;;;;;;;;;;5044392;28;20052;-74
2023/07/30 09:56:42;;;;;;;5.60;1.92;;;;;;;;;;5044262;28;20621;-74
2023/07/30 09:59:13;;;;;;;2.15;1.55;;;;;;;;;;5043999;28;20045;-77
2023/07/30 10:01:49;;;;;;;2.17;1.38;;;;;;;;;;5044284;28;20053;-74
2023/07/30 10:04:21;;;;;;;3.50;1.50;;;;;;;;;;5043745;28;20869;-74
2023/07/30 10:07:15;;;;;;;2.03;1.23;;;;;;;;;;5044324;28;20048;-75
2023/07/30 10:09:47;;;;;;;3.05;1.92;;;;;;;;;;5043959;28;20684;-76
2023/07/30 10:12:21;;;;;;;3.67;1.52;;;;;;;;;;5043917;28;20786;-76
2023/07/30 10:14:52;;;;;;;5.80;1.88;;;;;;;;;;5044101;28;20425;-75
2023/07/30 10:17:23;;;;;;;3.28;1.55;;;;;;;;;;5043367;28;20427;-73
2023/07/30 10:19:54;;;;;;;2.85;1.63;;;;;;;;;;5043860;28;20057;-76
2023/07/30 10:22:25;;;;;;;3.28;1.60;;;;;;;;;;5043875;28;20048;-76
2023/07/30 10:25:06;;;;;;;4.03;1.20;;;;;;;;;;5043864;28;20067;-73
2023/07/30 10:27:40;;;;;;;1.85;1.08;;;;;;;;;;5043800;28;20045;-76
2023/07/30 10:30:19;;;;;;;2.53;1.33;;;;;;;;;;5043204;28;20052;-75
2023/07/30 10:32:55;;;;;;;3.60;1.30;;;;;;;;;;5042729;28;20060;-76
2023/07/30 10:35:47;;;;;;;1.95;1.50;;;;;;;;;;5043229;28;20044;-74
2023/07/30 10:38:29;;;;;;;2.65;1.52;;;;;;;;;;5043271;28;20044;-72
2023/07/30 10:41:08;;;;;;;5.13;1.35;;;;;;;;;;5043084;28;20052;-75
2023/07/30 10:43:43;;;;;;;1.17;1.00;;;;;;;;;;5043294;28;20068;-76
2023/07/30 10:46:19;;;;;;;2.42;1.20;;;;;;;;;;5041929;28;20045;-73
2023/07/30 10:48:50;;;;;;;2.67;1.50;;;;;;;;;;5043361;28;20045;-76
2023/07/30 10:51:20;;;;;;;2.15;1.60;;;;;;;;;;5043183;28;20045;-75
2023/07/30 10:53:52;;;;;;;4.25;2.22;;;;;;;;;;5044056;28;20590;-76
2023/07/30 10:56:24;;;;;;;4.82;2.00;;;;;;;;;;5042373;28;20037;-74
2023/07/30 10:58:56;;;;;;;5.00;2.25;;;;;;;;;;5042505;28;20056;-73
2023/07/30 11:01:26;;;;;;;4.70;2.55;;;;;;;;;;5042369;28;20045;-74
2023/07/30 11:03:57;;;;;;;7.78;2.88;;;;;;;;;;5042857;28;20049;-75
2023/07/30 11:06:28;;;;;;;4.20;2.10;;;;;;;;;;5040655;28;20056;-77
2023/07/30 11:08:59;;;;;;;6.10;2.75;;;;;;;;;;5041405;28;20131;-76
2023/07/30 11:11:30;;;;;;;3.42;2.20;;;;;;;;;;5042651;28;20618;-75
2023/07/30 11:14:00;;;;;;;8.13;1.85;;;;;;;;;;5041094;28;20055;-76
2023/07/30 11:16:31;;;;;;;3.53;1.45;;;;;;;;;;5040805;28;20053;-75
2023/07/30 11:19:09;;;;;;;1.88;1.40;;;;;;;;;;5040626;28;20056;-75
2023/07/30 11:21:53;;;;;;;2.72;1.42;;;;;;;;;;5042022;28;20528;-73
2023/07/30 11:24:34;;;;;;;2.10;1.42;;;;;;;;;;5043064;28;20041;-77
2023/07/30 11:27:06;;;;;;;;;;;;;;;;;;5043194;28;20045;-73
2023/07/30 11:29:36;;;;;;;1.98;1.40;;;;;;;;;;5042749;28;19925;-74
2023/07/30 11:32:08;;;;;;;5.13;1.35;;;;;;;;;;5040686;28;20645;-76
2023/07/30 11:34:39;;;;;;;1.80;1.30;;;;;;;;;;5042270;28;20144;-74
2023/07/30 11:37:11;;;;;;;3.10;1.60;;;;;;;;;;5042015;28;20508;-76
2023/07/30 11:39:42;;;;;;;2.20;1.52;;;;;;;;;;5042555;28;20407;-74
2023/07/30 11:42:14;;;;;;;3.10;1.30;;;;;;;;;;5040410;28;20052;-75
2023/07/30 11:44:44;;;;;;;6.55;1.30;;;;;;;;;;5041787;28;20045;-76
2023/07/30 11:47:22;;;;;;;4.63;1.33;;;;;;;;;;5041472;28;20586;-75
2023/07/30 11:49:59;;;;;;;4.43;1.90;;;;;;;;;;5041508;28;20404;-74
2023/07/30 11:52:30;;;;;;;3.13;1.77;;;;;;;;;;5042080;28;20045;-74
2023/07/30 11:55:04;;;;;;;2.08;1.40;;;;;;;;;;5041879;28;20045;-74
2023/07/30 11:57:38;;;;;;;2.67;1.30;;;;;;;;;;5041798;28;20037;-76
2023/07/30 12:00:11;;;;;;;3.38;1.35;;;;;;;;;;5041356;28;20045;-73
2023/07/30 12:02:42;;;;;;;2.10;1.00;;;;;;;;;;5047054;28;20057;-74
2023/07/30 12:05:12;;;;;;;2.50;1.20;;;;;;;;;;5045841;28;20053;-72
2023/07/30 12:07:44;;;;;;;1.42;1.00;;;;;;;;;;5047847;28;20053;-75
2023/07/30 12:10:15;;;;;;;2.35;1.48;;;;;;;;;;5042073;28;20468;-75
2023/07/30 12:12:52;;;;;;;2.88;1.25;;;;;;;;;;5041760;28;20495;-72
2023/07/30 12:15:23;;;;;;;5.68;1.45;;;;;;;;;;5041896;28;20076;-73
2023/07/30 12:17:54;;;;;;;2.50;1.23;;;;;;;;;;5041545;28;20071;-75
2023/07/30 12:20:28;;;;;;;3.40;1.60;;;;;;;;;;5041383;28;20057;-72
2023/07/30 12:22:59;;;;;;;2.42;1.50;;;;;;;;;;5041451;28;20056;-71
2023/07/30 12:25:28;;;;;;;1.85;1.13;;;;;;;;;;5042005;28;20412;-73
2023/07/30 12:27:59;;;;;;;6.10;1.33;;;;;;;;;;5042228;28;20792;-72
2023/07/30 12:30:30;;;;;;;6.20;1.33;;;;;;;;;;5042117;28;20519;-72
2023/07/30 12:33:01;;;;;;;1.52;1.15;;;;;;;;;;5040053;28;20811;-74
2023/07/30 12:35:32;;;;;;;1.95;1.13;;;;;;;;;;5041618;28;20053;-73
2023/07/30 12:38:03;;;;;;;1.88;1.02;;;;;;;;;;5039902;28;20530;-71
2023/07/30 12:40:33;;;;;;;6.97;1.30;;;;;;;;;;5041556;28;20041;-72
2023/07/30 12:43:04;;;;;;;2.65;1.30;;;;;;;;;;5041400;28;20057;-74
2023/07/30 12:45:34;;;;;;;2.35;1.15;;;;;;;;;;5042258;28;20048;-73
2023/07/30 12:48:07;;;;;;;4.60;1.27;;;;;;;;;;5055454;28;20040;-74
2023/07/30 12:50:38;;;;;;;4.43;1.20;;;;;;;;;;5062217;28;20496;-74
2023/07/30 12:53:09;;;;;;;2.60;1.23;;;;;;;;;;5061357;28;20048;-74
2023/07/30 12:55:40;;;;;;;1.40;1.15;;;;;;;;;;5060696;28;20044;-74
2023/07/30 12:58:10;;;;;;;4.97;1.42;;;;;;;;;;5061128;28;20051;-73
2023/07/30 13:00:41;;;;;;;4.95;1.30;;;;;;;;;;5061792;28;20715;-73
2023/07/30 13:03:14;;;;;;;2.92;1.30;;;;;;;;;;5058997;28;20048;-75
2023/07/30 13:05:45;;;;;;;3.00;1.48;;;;;;;;;;5059975;28;20052;-73
2023/07/30 13:08:16;;;;;;;6.15;3.05;;;;;;;;;;5060261;28;20415;-73
2023/07/30 13:10:46;;;;;;;4.55;1.35;;;;;;;;;;5059592;28;20049;-75
2023/07/30 13:13:17;;;;;;;1.95;1.20;;;;;;;;;;5061674;28;20388;-73
2023/07/30 13:15:47;;;;;;;1.92;1.40;;;;;;;;;;5061034;28;20380;-73
2023/07/30 13:18:18;;;;;;;4.38;2.42;;;;;;;;;;5060355;28;20044;-75
2023/07/30 13:20:49;;;;;;;3.75;1.75;;;;;;;;;;5064867;28;20044;-73
2023/07/30 13:23:21;;;;;;;3.30;1.83;;;;;;;;;;5064705;28;20518;-72
2023/07/30 13:25:52;;;;;;;4.13;1.35;;;;;;;;;;5063206;28;20470;-73
2023/07/30 13:28:22;;;;;;;4.68;1.65;;;;;;;;;;5064904;28;20059;-77
2023/07/30 13:30:53;;;;;;;1.98;1.35;;;;;;;;;;5063988;28;20049;-74
2023/07/30 13:33:23;;;;;;;2.05;1.42;;;;;;;;;;5064155;28;20055;-73
2023/07/30 13:35:57;;;;;;;3.25;1.70;;;;;;;;;;5064102;28;20064;-74
2023/07/30 13:38:28;;;;;;;3.08;1.60;;;;;;;;;;5064815;28;20052;-73
2023/07/30 13:40:58;;;;;;;5.95;1.77;;;;;;;;;;5063983;28;20432;-73
2023/07/30 13:43:30;;;;;;;3.65;1.90;;;;;;;;;;5063775;28;20052;-74
2023/07/30 13:46:00;;;;;;;5.78;1.73;;;;;;;;;;5063993;28;20044;-72
2023/07/30 13:48:30;;;;;;;3.58;1.30;;;;;;;;;;5064172;28;20044;-73
2023/07/30 13:51:01;;;;;;;2.92;1.73;;;;;;;;;;5064385;28;20507;-74
2023/07/30 13:53:34;;;;;;;4.03;1.60;;;;;;;;;;5063207;28;20040;-79
2023/07/30 13:56:05;;;;;;;4.43;1.95;;;;;;;;;;5063485;28;20052;-72
2023/07/30 13:58:35;;;;;;;4.72;1.40;;;;;;;;;;5063998;28;20052;-74
2023/07/30 14:01:05;;;;;;;4.28;1.67;;;;;;;;;;5064103;28;20048;-73
2023/07/30 14:03:35;;;;;;;2.53;1.23;;;;;;;;;;5064194;28;20426;-74
2023/07/30 14:06:06;;;;;;;2.85;1.80;;;;;;;;;;5063357;28;20085;-73
2023/07/30 14:08:37;;;;;;;7.43;1.50;;;;;;;;;;5062654;28;20045;-73
2023/07/30 14:11:08;;;;;;;3.75;1.70;;;;;;;;;;5061410;28;20411;-73
2023/07/30 14:13:39;;;;;;;3.30;1.63;;;;;;;;;;5063614;28;20439;-73
2023/07/30 14:16:10;;;;;;;3.97;1.60;;;;;;;;;;5063518;28;20048;-72
2023/07/30 14:18:41;;;;;;;3.08;1.50;;;;;;;;;;5064122;28;20067;-72
2023/07/30 14:21:12;;;;;;;3.83;1.55;;;;;;;;;;5063907;28;20056;-74
2023/07/30 14:23:42;;;;;;;9.88;2.40;;;;;;;;;;5063236;28;20415;-74
2023/07/30 14:26:14;;;;;;;4.55;1.83;;;;;;;;;;5063376;28;20048;-72
2023/07/30 14:28:45;;;;;;;4.55;1.65;;;;;;;;;;5063369;28;20049;-71
2023/07/30 14:31:22;;;;;;;4.80;2.97;;;;;;;;;;5062930;28;20345;-72
2023/07/30 14:33:52;;;;;;;7.30;2.42;;;;;;;;;;5061356;28;20055;-73
2023/07/30 14:36:22;;;;;;;3.72;2.10;;;;;;;;;;5063029;28;20063;-73
2023/07/30 14:38:53;;;;;;;3.28;2.28;;;;;;;;;;5063717;28;20041;-73
2023/07/30 14:41:24;;;;;;;9.98;2.15;;;;;;;;;;5061867;28;20408;-76
2023/07/30 14:43:54;;;;;;;7.28;2.00;;;;;;;;;;5063236;28;20036;-75
2023/07/30 14:46:24;;;;;;;7.68;2.22;;;;;;;;;;5062549;28;20052;-73
2023/07/30 14:48:55;;;;;;;2.83;1.70;;;;;;;;;;5063902;28;20048;-74
2023/07/30 14:51:26;;;;;;;2.97;1.60;;;;;;;;;;5063007;28;20062;-72
2023/07/30 14:53:57;;;;;;;2.10;1.45;;;;;;;;;;5063140;28;20048;-72
2023/07/30 14:56:27;;;;;;;3.47;1.70;;;;;;;;;;5062845;28;20048;-73
2023/07/30 14:58:57;;;;;;;2.50;1.42;;;;;;;;;;5063279;28;20049;-73
2023/07/30 15:01:30;;;;;;;2.58;1.33;;;;;;;;;;5063311;28;20415;-73
2023/07/30 15:04:00;;;;;;;1.80;1.27;;;;;;;;;;5061237;28;20056;-72
2023/07/30 15:06:31;;;;;;;1.98;1.20;;;;;;;;;;5062121;28;20040;-73
2023/07/30 15:09:05;;;;;;;1.83;1.17;;;;;;;;;;5062039;28;20052;-72
2023/07/30 15:11:37;;;;;;;2.65;1.75;;;;;;;;;;5063243;28;20044;-72
2023/07/30 15:14:07;;;;;;;3.38;1.60;;;;;;;;;;5062398;28;20884;-73